createdAt,value
2023-01-20T00:01:29.412Z,8.10
2023-01-20T00:03:56.717Z,8.30
2023-01-20T00:06:24.777Z,8.70
2023-01-20T00:08:52.495Z,8.50
2023-01-20T00:11:19.580Z,7.90
2023-01-20T00:13:46.501Z,8.70
2023-01-20T00:16:13.500Z,8.00
2023-01-20T00:18:40.538Z,8.90
2023-01-20T00:21:12.410Z,8.50
2023-01-20T00:23:39.903Z,8.50
2023-01-20T00:26:09.600Z,9.00
2023-01-20T00:28:36.629Z,9.20
2023-01-20T00:31:11.818Z,9.90
2023-01-20T00:33:38.832Z,8.90
2023-01-20T00:36:05.884Z,8.60
2023-01-20T00:38:32.730Z,8.60
2023-01-20T00:40:59.631Z,8.40
2023-01-20T00:43:26.681Z,9.60
2023-01-20T00:45:53.481Z,9.70
2023-01-20T00:48:20.281Z,8.40
2023-01-20T00:50:47.122Z,9.60
2023-01-20T00:53:13.897Z,8.90
2023-01-20T00:55:40.721Z,10.40
2023-01-20T00:58:07.558Z,8.90
2023-01-20T01:00:34.364Z,9.60
2023-01-20T01:03:01.191Z,8.50
2023-01-20T01:05:27.992Z,8.90
2023-01-20T01:07:54.814Z,9.20
2023-01-20T01:10:21.574Z,8.60
2023-01-20T01:12:48.373Z,8.90
2023-01-20T01:15:15.732Z,8.00
2023-01-20T01:17:44.230Z,8.50
2023-01-20T04:55:15.916Z,6.30
2023-01-20T05:07:55.642Z,6.90
2023-01-20T05:12:35.302Z,5.90
2023-01-20T06:10:50.563Z,6.40
2023-01-20T06:27:01.498Z,6.30
2023-01-20T06:38:51.295Z,5.20
2023-01-20T06:50:46.976Z,6.10
2023-01-20T06:59:18.870Z,5.90
2023-01-20T07:12:18.489Z,6.50
2023-01-20T07:38:55.272Z,6.00
2023-01-20T08:12:46.056Z,13.90
2023-01-20T08:33:13.769Z,10.80
2023-01-20T08:41:48.477Z,9.40
2023-01-20T09:07:04.382Z,10.90
2023-01-20T09:15:26.310Z,10.60
2023-01-20T09:23:59.067Z,9.30
2023-01-20T09:35:58.587Z,7.90
2023-01-20T09:48:19.433Z,8.70
2023-01-20T09:52:09.041Z,7.90
2023-01-20T13:39:42.078Z,5.90
2023-01-20T13:42:37.284Z,5.50
2023-01-20T13:45:30.698Z,6.40
2023-01-20T13:48:38.563Z,6.90
2023-01-20T13:51:48.539Z,6.40
2023-01-20T13:54:32.979Z,9.40
2023-01-20T13:57:26.928Z,10.60
2023-01-20T13:59:58.243Z,10.30
2023-01-20T14:02:30.267Z,8.80
2023-01-20T14:04:58.868Z,9.40
2023-01-20T14:07:27.765Z,8.10
2023-01-20T14:09:55.625Z,7.80
2023-01-20T14:12:22.671Z,8.00
2023-01-20T14:14:50.419Z,8.00
2023-01-20T14:17:19.276Z,8.40
2023-01-20T14:19:53.228Z,7.80
2023-01-20T14:22:22.773Z,7.30
2023-01-20T14:24:52.794Z,8.30
2023-01-20T14:27:24.752Z,8.80
2023-01-20T14:29:53.623Z,8.50
2023-01-20T14:32:25.600Z,8.80
2023-01-20T14:34:52.809Z,8.60
2023-01-20T14:37:31.510Z,7.20
2023-01-20T14:40:43.204Z,8.00
2023-01-20T14:43:20.980Z,7.70
2023-01-20T14:45:49.804Z,8.10
2023-01-20T14:48:32.376Z,8.40
2023-01-20T14:51:02.788Z,8.50
2023-01-20T14:53:30.250Z,7.60
2023-01-20T14:56:04.871Z,8.30
2023-01-20T14:58:32.003Z,8.70
2023-01-20T15:01:04.226Z,8.10
2023-01-20T15:03:55.637Z,8.50
2023-01-20T15:06:24.122Z,8.70
2023-01-20T15:09:05.728Z,9.80
2023-01-20T15:11:33.776Z,8.90
2023-01-20T15:14:05.302Z,8.40
2023-01-20T15:16:36.059Z,9.00
2023-01-20T15:19:17.567Z,8.80
2023-01-20T15:21:46.188Z,8.90
2023-01-20T15:24:19.769Z,9.00
2023-01-20T15:26:47.401Z,8.80
2023-01-20T15:29:41.924Z,9.00
2023-01-20T15:32:12.129Z,9.40
2023-01-20T15:34:39.749Z,9.30
2023-01-20T15:37:17.586Z,9.40
2023-01-20T15:39:44.542Z,10.20
2023-01-20T15:42:11.715Z,10.00
2023-01-20T15:44:38.653Z,9.70
2023-01-20T15:47:30.050Z,10.70
2023-01-20T15:49:58.221Z,12.40
2023-01-20T15:52:25.122Z,10.80
2023-01-20T15:54:54.339Z,11.40
2023-01-20T15:57:21.300Z,13.60
2023-01-20T15:59:50.194Z,13.10
2023-01-20T16:02:18.892Z,10.70
2023-01-20T16:04:45.784Z,13.50
2023-01-20T16:07:17.653Z,12.30
2023-01-20T16:09:44.747Z,12.60
2023-01-20T16:12:16.417Z,13.10
2023-01-20T16:14:43.315Z,11.90
2023-01-20T16:17:15.830Z,13.20
2023-01-20T16:19:42.758Z,12.60
2023-01-20T16:22:10.596Z,14.70
2023-01-20T16:24:37.863Z,14.00
2023-01-20T16:27:05.191Z,14.50
2023-01-20T16:29:32.449Z,13.60
2023-01-20T16:31:59.345Z,15.20
2023-01-20T16:34:26.325Z,14.90
2023-01-20T16:36:53.273Z,15.90
2023-01-20T16:39:20.508Z,16.40
2023-01-20T16:41:49.901Z,14.90
2023-01-20T16:44:16.832Z,14.80
2023-01-20T16:46:45.888Z,16.80
2023-01-20T16:49:12.910Z,14.20
2023-01-20T16:51:39.696Z,17.70
2023-01-20T16:54:06.915Z,15.70
2023-01-20T16:56:34.023Z,15.10
2023-01-20T16:59:01.723Z,13.70
2023-01-20T17:01:29.141Z,13.30
2023-01-20T17:04:00.564Z,13.80
2023-01-20T17:06:30.104Z,12.80
2023-01-20T17:08:57.982Z,12.10
2023-01-20T17:11:29.700Z,12.70
2023-01-20T17:13:56.876Z,12.50
2023-01-20T17:16:24.146Z,12.20
2023-01-20T17:18:54.916Z,12.30
2023-01-20T17:21:22.568Z,13.00
2023-01-20T17:23:53.567Z,13.10
2023-01-20T17:26:20.446Z,12.00
2023-01-20T17:28:47.619Z,12.50
2023-01-20T17:31:14.605Z,13.00
2023-01-20T17:33:48.144Z,12.90
2023-01-20T17:36:16.732Z,11.90
2023-01-20T17:38:43.977Z,13.20
2023-01-20T17:41:11.593Z,13.10
2023-01-20T17:43:39.976Z,13.50
2023-01-20T17:46:24.085Z,14.30
2023-01-20T17:48:51.383Z,12.40
2023-01-20T17:51:20.503Z,11.30
2023-01-20T17:53:47.388Z,11.50
2023-01-20T17:56:14.318Z,11.30
2023-01-20T17:58:42.341Z,12.20
2023-01-20T18:01:11.013Z,11.50
2023-01-20T18:03:39.640Z,12.90
2023-01-20T18:06:07.862Z,12.20
2023-01-20T18:08:34.828Z,14.10
2023-01-20T18:11:03.705Z,13.80
2023-01-20T18:13:30.689Z,13.00
2023-01-20T18:15:57.587Z,14.50
2023-01-20T18:18:24.844Z,14.30
2023-01-20T18:20:51.627Z,13.90
2023-01-20T18:23:18.851Z,14.60
2023-01-20T18:25:45.563Z,15.10
2023-01-20T18:28:12.697Z,14.60
2023-01-20T18:30:39.584Z,14.60
2023-01-20T18:33:06.421Z,15.10
2023-01-20T18:35:33.202Z,15.70
2023-01-20T18:38:02.151Z,16.20
2023-01-20T18:40:28.900Z,15.70
2023-01-20T18:42:55.720Z,15.50
2023-01-20T18:45:22.555Z,16.60
2023-01-20T18:47:58.397Z,15.60
2023-01-20T18:50:25.196Z,16.50
2023-01-20T18:52:51.981Z,16.20
2023-01-20T18:55:18.819Z,16.70
2023-01-20T18:57:45.596Z,16.90
2023-01-20T19:00:12.878Z,16.60
2023-01-20T19:02:39.649Z,16.70
2023-01-20T19:05:07.116Z,17.40
2023-01-20T19:07:33.905Z,17.40
2023-01-20T19:10:00.710Z,16.80
2023-01-20T19:12:27.501Z,18.10
2023-01-20T19:14:54.905Z,18.10
2023-01-20T19:17:23.581Z,18.10
2023-01-20T19:19:50.386Z,18.40
2023-01-20T19:22:17.141Z,19.60
2023-01-20T19:24:55.180Z,19.60
2023-01-20T19:27:22.075Z,17.80
2023-01-20T19:29:48.891Z,18.30
2023-01-20T19:32:15.635Z,17.80
2023-01-20T19:34:45.199Z,19.90
2023-01-20T19:37:12.119Z,20.00
2023-01-20T19:39:38.881Z,18.70
2023-01-20T19:42:05.658Z,19.20
2023-01-20T19:44:32.409Z,19.30
2023-01-20T19:47:04.239Z,19.90
2023-01-20T19:49:31.121Z,20.30
2023-01-20T19:51:59.761Z,19.70
2023-01-20T19:54:28.668Z,19.20
2023-01-20T19:56:55.400Z,18.90
2023-01-20T19:59:22.137Z,18.80
2023-01-20T20:01:48.996Z,18.90
2023-01-20T20:04:20.483Z,21.20
2023-01-20T20:06:48.781Z,17.90
2023-01-20T20:09:17.916Z,20.00
2023-01-20T20:11:44.896Z,19.00
2023-01-20T20:14:13.613Z,19.90
2023-01-20T20:16:40.504Z,19.90
2023-01-20T20:19:08.119Z,19.40
2023-01-20T20:21:35.019Z,18.80
2023-01-20T20:24:02.036Z,19.20
2023-01-20T20:26:30.735Z,18.60
2023-01-20T20:28:59.051Z,18.70
2023-01-20T20:31:29.415Z,19.20
2023-01-20T20:33:59.503Z,18.90
2023-01-20T20:36:28.541Z,18.80
2023-01-20T20:38:55.469Z,19.60
2023-01-20T20:41:25.816Z,19.10
2023-01-20T20:43:53.612Z,18.70
2023-01-20T20:46:20.625Z,17.90
2023-01-20T20:48:47.541Z,19.50
2023-01-20T20:51:17.325Z,18.30
2023-01-20T20:53:44.537Z,18.10
2023-01-20T20:56:13.555Z,18.40
2023-01-20T20:58:55.503Z,19.90
2023-01-20T21:01:27.320Z,19.00
2023-01-20T21:03:59.395Z,19.10
2023-01-20T21:06:26.519Z,17.90
2023-01-20T21:08:53.821Z,19.10
2023-01-20T21:11:20.979Z,19.60
2023-01-20T21:13:51.956Z,17.90
2023-01-20T21:16:22.307Z,20.10
2023-01-20T21:18:50.215Z,19.10
2023-01-20T21:21:17.983Z,19.60
2023-01-20T21:23:49.639Z,18.50
2023-01-20T21:26:16.619Z,18.60
2023-01-20T21:28:44.870Z,19.00
2023-01-20T21:31:31.558Z,19.40
2023-01-20T21:33:58.809Z,18.60
2023-01-20T21:36:26.412Z,19.30
2023-01-20T21:38:53.568Z,18.50
2023-01-20T21:41:20.498Z,18.30
2023-01-20T21:44:06.716Z,19.70
2023-01-20T21:46:38.476Z,20.40
2023-01-20T21:49:25.321Z,18.90
2023-01-20T21:52:11.534Z,17.90
2023-01-20T21:54:40.562Z,17.50
2023-01-20T21:57:07.441Z,19.00
2023-01-20T21:59:34.325Z,19.50
2023-01-20T22:02:01.222Z,18.40
2023-01-20T22:04:28.132Z,19.50
2023-01-20T22:06:55.374Z,18.20
2023-01-20T22:09:22.241Z,18.50
2023-01-20T22:12:14.358Z,18.60
2023-01-20T22:14:43.667Z,19.20
2023-01-20T22:17:10.994Z,18.70
2023-01-20T22:19:38.086Z,20.00
2023-01-20T22:22:08.987Z,20.40
2023-01-20T22:24:36.718Z,21.00
2023-01-20T22:27:06.215Z,20.40
2023-01-20T22:29:35.228Z,19.80
2023-01-20T22:32:06.228Z,19.00
2023-01-20T22:34:33.467Z,20.40
2023-01-20T22:37:00.835Z,20.40
2023-01-20T22:39:28.268Z,20.70
2023-01-20T22:41:55.149Z,20.30
2023-01-20T22:44:21.939Z,19.60
2023-01-20T22:46:48.763Z,20.60
2023-01-20T22:49:15.594Z,18.90
2023-01-20T22:51:42.375Z,21.00
2023-01-20T22:54:10.768Z,20.80
2023-01-20T22:56:39.189Z,21.20
2023-01-20T22:59:06.144Z,20.30
2023-01-20T23:01:34.273Z,21.30
2023-01-20T23:04:02.637Z,19.40
2023-01-20T23:06:32.674Z,21.10
2023-01-20T23:09:03.439Z,21.00
2023-01-20T23:11:31.725Z,21.90
2023-01-20T23:14:00.826Z,20.50
2023-01-20T23:16:27.941Z,21.40
2023-01-20T23:18:54.820Z,20.40
2023-01-20T23:21:21.852Z,20.80
2023-01-20T23:23:54.815Z,21.00
2023-01-20T23:26:26.892Z,20.70
2023-01-20T23:28:53.998Z,21.30
2023-01-20T23:31:21.192Z,21.50
2023-01-20T23:33:48.110Z,20.70
2023-01-20T23:36:24.779Z,21.70
2023-01-20T23:38:53.622Z,22.60
2023-01-20T23:41:23.528Z,22.50
2023-01-20T23:43:50.375Z,22.40
2023-01-20T23:46:18.388Z,21.80
2023-01-20T23:48:46.830Z,21.70
2023-01-20T23:51:13.731Z,21.40
2023-01-20T23:53:40.593Z,24.50
2023-01-20T23:56:15.579Z,23.70
2023-01-20T23:58:42.606Z,21.40
